sensor_id;sensor_type;location;lat;lon;timestamp;P1;durP1;ratioP1;P2;durP2;ratioP2
8165;SDS011;4124;50.856;3.634;2022-10-01T00:00:47;1.83;;;1.50;;
8165;SDS011;4124;50.856;3.634;2022-10-01T00:03:13;3.73;;;2.10;;
8165;SDS011;4124;50.856;3.634;2022-10-01T00:05:38;6.27;;;2.10;;
8165;SDS011;4124;50.856;3.634;2022-10-01T00:08:03;6.60;;;2.00;;
8165;SDS011;4124;50.856;3.634;2022-10-01T00:10:28;1.87;;;1.40;;
8165;SDS011;4124;50.856;3.634;2022-10-01T00:12:55;3.50;;;1.90;;
8165;SDS011;4124;50.856;3.634;2022-10-01T00:15:21;4.43;;;1.80;;
8165;SDS011;4124;50.856;3.634;2022-10-01T00:17:47;2.73;;;1.50;;
8165;SDS011;4124;50.856;3.634;2022-10-01T00:20:12;1.73;;;1.40;;
8165;SDS011;4124;50.856;3.634;2022-10-01T00:22:38;2.50;;;1.80;;
8165;SDS011;4124;50.856;3.634;2022-10-01T00:25:04;3.83;;;1.60;;
8165;SDS011;4124;50.856;3.634;2022-10-01T00:27:29;3.33;;;1.60;;
8165;SDS011;4124;50.856;3.634;2022-10-01T00:29:55;2.80;;;1.70;;
8165;SDS011;4124;50.856;3.634;2022-10-01T00:32:20;2.80;;;1.93;;
8165;SDS011;4124;50.856;3.634;2022-10-01T00:34:46;3.33;;;1.53;;
8165;SDS011;4124;50.856;3.634;2022-10-01T00:37:13;3.77;;;1.80;;
8165;SDS011;4124;50.856;3.634;2022-10-01T00:39:38;2.67;;;1.90;;
8165;SDS011;4124;50.856;3.634;2022-10-01T00:42:11;2.33;;;1.50;;
8165;SDS011;4124;50.856;3.634;2022-10-01T00:44:41;2.70;;;1.43;;
8165;SDS011;4124;50.856;3.634;2022-10-01T00:49:38;4.07;;;1.40;;
8165;SDS011;4124;50.856;3.634;2022-10-01T00:52:05;2.90;;;1.50;;
8165;SDS011;4124;50.856;3.634;2022-10-01T00:54:33;2.30;;;1.70;;
8165;SDS011;4124;50.856;3.634;2022-10-01T00:57:01;3.37;;;1.57;;
8165;SDS011;4124;50.856;3.634;2022-10-01T00:59:26;2.73;;;1.83;;
8165;SDS011;4124;50.856;3.634;2022-10-01T01:01:52;3.60;;;1.80;;
8165;SDS011;4124;50.856;3.634;2022-10-01T01:04:17;9.80;;;1.87;;
8165;SDS011;4124;50.856;3.634;2022-10-01T01:06:43;2.30;;;1.63;;
8165;SDS011;4124;50.856;3.634;2022-10-01T01:09:09;2.70;;;1.50;;
8165;SDS011;4124;50.856;3.634;2022-10-01T01:11:45;1.73;;;1.50;;
8165;SDS011;4124;50.856;3.634;2022-10-01T01:14:17;4.60;;;1.77;;
8165;SDS011;4124;50.856;3.634;2022-10-01T01:16:54;4.10;;;1.40;;
8165;SDS011;4124;50.856;3.634;2022-10-01T01:19:26;3.20;;;1.60;;
8165;SDS011;4124;50.856;3.634;2022-10-01T01:21:55;1.37;;;1.27;;
8165;SDS011;4124;50.856;3.634;2022-10-01T01:24:30;1.93;;;1.70;;
8165;SDS011;4124;50.856;3.634;2022-10-01T01:29:37;4.30;;;1.50;;
8165;SDS011;4124;50.856;3.634;2022-10-01T01:32:06;3.60;;;1.63;;
8165;SDS011;4124;50.856;3.634;2022-10-01T01:34:32;2.27;;;1.43;;
8165;SDS011;4124;50.856;3.634;2022-10-01T01:37:02;1.90;;;1.60;;
8165;SDS011;4124;50.856;3.634;2022-10-01T01:39:29;5.10;;;1.70;;
8165;SDS011;4124;50.856;3.634;2022-10-01T01:41:56;4.23;;;1.70;;
8165;SDS011;4124;50.856;3.634;2022-10-01T01:44:24;1.50;;;1.40;;
8165;SDS011;4124;50.856;3.634;2022-10-01T01:46:51;2.93;;;1.47;;
8165;SDS011;4124;50.856;3.634;2022-10-01T01:49:20;2.97;;;1.70;;
8165;SDS011;4124;50.856;3.634;2022-10-01T01:51:48;1.50;;;1.30;;
8165;SDS011;4124;50.856;3.634;2022-10-01T01:54:15;1.40;;;1.20;;
8165;SDS011;4124;50.856;3.634;2022-10-01T01:56:40;2.47;;;1.60;;
8165;SDS011;4124;50.856;3.634;2022-10-01T01:59:06;1.70;;;1.40;;
8165;SDS011;4124;50.856;3.634;2022-10-01T02:01:36;1.50;;;1.40;;
8165;SDS011;4124;50.856;3.634;2022-10-01T02:04:03;4.20;;;1.40;;
8165;SDS011;4124;50.856;3.634;2022-10-01T02:08:56;1.97;;;1.37;;
8165;SDS011;4124;50.856;3.634;2022-10-01T02:11:33;1.73;;;1.57;;
8165;SDS011;4124;50.856;3.634;2022-10-01T02:14:04;2.90;;;1.40;;
8165;SDS011;4124;50.856;3.634;2022-10-01T02:19:11;1.43;;;1.20;;
8165;SDS011;4124;50.856;3.634;2022-10-01T02:21:45;3.10;;;1.47;;
8165;SDS011;4124;50.856;3.634;2022-10-01T02:26:59;2.17;;;1.50;;
8165;SDS011;4124;50.856;3.634;2022-10-01T02:29:27;1.93;;;1.40;;
8165;SDS011;4124;50.856;3.634;2022-10-01T02:31:53;3.20;;;1.50;;
8165;SDS011;4124;50.856;3.634;2022-10-01T02:34:20;3.73;;;1.30;;
8165;SDS011;4124;50.856;3.634;2022-10-01T02:36:46;2.57;;;1.50;;
8165;SDS011;4124;50.856;3.634;2022-10-01T02:39:12;1.50;;;1.20;;
8165;SDS011;4124;50.856;3.634;2022-10-01T02:41:39;2.10;;;1.33;;
8165;SDS011;4124;50.856;3.634;2022-10-01T02:44:07;2.00;;;1.80;;
8165;SDS011;4124;50.856;3.634;2022-10-01T02:46:39;1.50;;;1.40;;
8165;SDS011;4124;50.856;3.634;2022-10-01T02:49:08;2.90;;;1.30;;
8165;SDS011;4124;50.856;3.634;2022-10-01T02:54:07;2.33;;;1.40;;
8165;SDS011;4124;50.856;3.634;2022-10-01T02:56:34;2.23;;;1.73;;
8165;SDS011;4124;50.856;3.634;2022-10-01T02:59:19;3.03;;;1.60;;
8165;SDS011;4124;50.856;3.634;2022-10-01T03:01:45;1.83;;;1.63;;
8165;SDS011;4124;50.856;3.634;2022-10-01T03:04:10;2.40;;;1.70;;
8165;SDS011;4124;50.856;3.634;2022-10-01T03:06:36;1.40;;;1.30;;
8165;SDS011;4124;50.856;3.634;2022-10-01T03:09:01;1.93;;;1.53;;
8165;SDS011;4124;50.856;3.634;2022-10-01T03:11:27;1.60;;;1.20;;
8165;SDS011;4124;50.856;3.634;2022-10-01T03:13:52;4.07;;;1.70;;
8165;SDS011;4124;50.856;3.634;2022-10-01T03:16:18;2.87;;;1.60;;
8165;SDS011;4124;50.856;3.634;2022-10-01T03:18:43;1.50;;;1.40;;
8165;SDS011;4124;50.856;3.634;2022-10-01T03:21:08;5.13;;;1.40;;
8165;SDS011;4124;50.856;3.634;2022-10-01T03:23:33;1.40;;;1.20;;
8165;SDS011;4124;50.856;3.634;2022-10-01T03:25:59;2.47;;;1.40;;
8165;SDS011;4124;50.856;3.634;2022-10-01T03:28:24;1.33;;;1.23;;
8165;SDS011;4124;50.856;3.634;2022-10-01T03:30:49;1.80;;;1.50;;
8165;SDS011;4124;50.856;3.634;2022-10-01T03:33:14;1.53;;;1.30;;
8165;SDS011;4124;50.856;3.634;2022-10-01T03:35:40;1.70;;;1.40;;
8165;SDS011;4124;50.856;3.634;2022-10-01T03:38:05;2.13;;;1.37;;
8165;SDS011;4124;50.856;3.634;2022-10-01T03:40:30;1.70;;;1.43;;
8165;SDS011;4124;50.856;3.634;2022-10-01T03:42:57;1.97;;;1.30;;
8165;SDS011;4124;50.856;3.634;2022-10-01T03:45:22;1.70;;;1.20;;
8165;SDS011;4124;50.856;3.634;2022-10-01T03:47:51;1.40;;;1.20;;
8165;SDS011;4124;50.856;3.634;2022-10-01T03:50:16;1.37;;;1.27;;
8165;SDS011;4124;50.856;3.634;2022-10-01T03:52:41;1.70;;;1.40;;
8165;SDS011;4124;50.856;3.634;2022-10-01T03:55:10;2.37;;;1.30;;
8165;SDS011;4124;50.856;3.634;2022-10-01T03:57:36;1.57;;;1.27;;
8165;SDS011;4124;50.856;3.634;2022-10-01T04:00:01;1.90;;;1.20;;
8165;SDS011;4124;50.856;3.634;2022-10-01T04:02:27;1.57;;;1.20;;
8165;SDS011;4124;50.856;3.634;2022-10-01T04:04:52;1.30;;;1.20;;
8165;SDS011;4124;50.856;3.634;2022-10-01T04:07:17;1.50;;;1.20;;
8165;SDS011;4124;50.856;3.634;2022-10-01T04:09:43;2.10;;;1.30;;
8165;SDS011;4124;50.856;3.634;2022-10-01T04:12:08;1.23;;;1.10;;
8165;SDS011;4124;50.856;3.634;2022-10-01T04:14:33;2.13;;;1.50;;
8165;SDS011;4124;50.856;3.634;2022-10-01T04:16:58;2.50;;;1.37;;
8165;SDS011;4124;50.856;3.634;2022-10-01T04:19:24;1.83;;;1.33;;
8165;SDS011;4124;50.856;3.634;2022-10-01T04:21:49;2.03;;;1.40;;
8165;SDS011;4124;50.856;3.634;2022-10-01T04:24:14;3.63;;;1.30;;
8165;SDS011;4124;50.856;3.634;2022-10-01T04:26:40;2.30;;;1.40;;
8165;SDS011;4124;50.856;3.634;2022-10-01T04:29:05;2.40;;;1.30;;
8165;SDS011;4124;50.856;3.634;2022-10-01T04:31:30;1.83;;;1.30;;
8165;SDS011;4124;50.856;3.634;2022-10-01T04:33:58;1.57;;;1.10;;
8165;SDS011;4124;50.856;3.634;2022-10-01T04:36:24;2.07;;;1.27;;
8165;SDS011;4124;50.856;3.634;2022-10-01T04:38:50;1.80;;;1.50;;
8165;SDS011;4124;50.856;3.634;2022-10-01T04:41:15;2.50;;;1.50;;
8165;SDS011;4124;50.856;3.634;2022-10-01T04:43:40;1.40;;;1.23;;
8165;SDS011;4124;50.856;3.634;2022-10-01T04:46:06;1.30;;;1.10;;
8165;SDS011;4124;50.856;3.634;2022-10-01T04:48:31;1.80;;;1.27;;
8165;SDS011;4124;50.856;3.634;2022-10-01T04:50:57;2.27;;;1.40;;
8165;SDS011;4124;50.856;3.634;2022-10-01T04:53:22;1.80;;;1.20;;
8165;SDS011;4124;50.856;3.634;2022-10-01T04:55:47;3.37;;;1.60;;
8165;SDS011;4124;50.856;3.634;2022-10-01T04:58:12;2.13;;;1.30;;
8165;SDS011;4124;50.856;3.634;2022-10-01T05:00:38;1.30;;;1.13;;
8165;SDS011;4124;50.856;3.634;2022-10-01T05:03:03;2.50;;;1.53;;
8165;SDS011;4124;50.856;3.634;2022-10-01T05:05:28;1.37;;;1.20;;
8165;SDS011;4124;50.856;3.634;2022-10-01T05:07:56;3.10;;;1.30;;
8165;SDS011;4124;50.856;3.634;2022-10-01T05:10:22;1.23;;;1.03;;
8165;SDS011;4124;50.856;3.634;2022-10-01T05:12:47;2.00;;;1.50;;
8165;SDS011;4124;50.856;3.634;2022-10-01T05:15:13;1.70;;;1.20;;
8165;SDS011;4124;50.856;3.634;2022-10-01T05:17:39;1.20;;;1.10;;
8165;SDS011;4124;50.856;3.634;2022-10-01T05:20:04;1.67;;;1.40;;
8165;SDS011;4124;50.856;3.634;2022-10-01T05:22:30;2.00;;;1.17;;
8165;SDS011;4124;50.856;3.634;2022-10-01T05:24:56;1.50;;;1.30;;
8165;SDS011;4124;50.856;3.634;2022-10-01T05:27:24;1.30;;;1.10;;
8165;SDS011;4124;50.856;3.634;2022-10-01T05:29:49;1.73;;;1.30;;
8165;SDS011;4124;50.856;3.634;2022-10-01T05:32:15;819.43;;;744.47;;
8165;SDS011;4124;50.856;3.634;2022-10-01T05:34:40;820.20;;;745.07;;
8165;SDS011;4124;50.856;3.634;2022-10-01T05:37:05;818.37;;;743.47;;
8165;SDS011;4124;50.856;3.634;2022-10-01T05:39:30;817.50;;;742.63;;
8165;SDS011;4124;50.856;3.634;2022-10-01T05:41:57;818.33;;;743.27;;
8165;SDS011;4124;50.856;3.634;2022-10-01T05:44:22;818.33;;;743.50;;
8165;SDS011;4124;50.856;3.634;2022-10-01T05:46:48;817.53;;;742.73;;
8165;SDS011;4124;50.856;3.634;2022-10-01T05:49:14;817.67;;;742.80;;
8165;SDS011;4124;50.856;3.634;2022-10-01T05:51:41;814.27;;;739.60;;
8165;SDS011;4124;50.856;3.634;2022-10-01T05:54:06;816.50;;;741.87;;
8165;SDS011;4124;50.856;3.634;2022-10-01T05:56:32;819.53;;;744.53;;
8165;SDS011;4124;50.856;3.634;2022-10-01T05:58:57;814.17;;;739.50;;
8165;SDS011;4124;50.856;3.634;2022-10-01T06:01:23;816.40;;;741.63;;
8165;SDS011;4124;50.856;3.634;2022-10-01T06:03:51;818.37;;;743.53;;
8165;SDS011;4124;50.856;3.634;2022-10-01T06:06:21;824.60;;;747.70;;
8165;SDS011;4124;50.856;3.634;2022-10-01T06:08:46;846.37;;;764.97;;
8165;SDS011;4124;50.856;3.634;2022-10-01T06:11:11;826.00;;;749.40;;
8165;SDS011;4124;50.856;3.634;2022-10-01T06:13:36;819.90;;;744.40;;
8165;SDS011;4124;50.856;3.634;2022-10-01T06:16:02;821.07;;;745.57;;
8165;SDS011;4124;50.856;3.634;2022-10-01T06:18:27;817.43;;;742.23;;
8165;SDS011;4124;50.856;3.634;2022-10-01T06:20:52;817.13;;;742.37;;
8165;SDS011;4124;50.856;3.634;2022-10-01T06:23:17;816.30;;;741.40;;
8165;SDS011;4124;50.856;3.634;2022-10-01T06:25:43;818.47;;;743.23;;
8165;SDS011;4124;50.856;3.634;2022-10-01T06:28:09;821.03;;;745.77;;
8165;SDS011;4124;50.856;3.634;2022-10-01T06:30:35;817.33;;;742.50;;
8165;SDS011;4124;50.856;3.634;2022-10-01T06:33:05;817.33;;;742.33;;
8165;SDS011;4124;50.856;3.634;2022-10-01T06:35:31;1.63;;;1.10;;
8165;SDS011;4124;50.856;3.634;2022-10-01T06:37:56;2.50;;;1.13;;
8165;SDS011;4124;50.856;3.634;2022-10-01T06:40:22;6.77;;;1.30;;
8165;SDS011;4124;50.856;3.634;2022-10-01T06:42:48;3.67;;;1.50;;
8165;SDS011;4124;50.856;3.634;2022-10-01T06:45:14;8.87;;;1.70;;
8165;SDS011;4124;50.856;3.634;2022-10-01T06:47:40;4.03;;;1.80;;
8165;SDS011;4124;50.856;3.634;2022-10-01T06:50:05;4.77;;;1.60;;
8165;SDS011;4124;50.856;3.634;2022-10-01T06:52:30;4.33;;;1.50;;
8165;SDS011;4124;50.856;3.634;2022-10-01T06:55:17;5.70;;;1.30;;
8165;SDS011;4124;50.856;3.634;2022-10-01T06:57:43;9.73;;;1.60;;
8165;SDS011;4124;50.856;3.634;2022-10-01T07:00:08;9.43;;;1.30;;
8165;SDS011;4124;50.856;3.634;2022-10-01T07:02:34;4.90;;;1.37;;
8165;SDS011;4124;50.856;3.634;2022-10-01T07:05:00;2.80;;;1.30;;
8165;SDS011;4124;50.856;3.634;2022-10-01T07:07:29;4.30;;;1.47;;
8165;SDS011;4124;50.856;3.634;2022-10-01T07:09:55;4.53;;;1.50;;
8165;SDS011;4124;50.856;3.634;2022-10-01T07:12:20;6.53;;;1.40;;
8165;SDS011;4124;50.856;3.634;2022-10-01T07:14:46;3.87;;;1.00;;
8165;SDS011;4124;50.856;3.634;2022-10-01T07:17:11;1.77;;;1.30;;
8165;SDS011;4124;50.856;3.634;2022-10-01T07:19:36;3.33;;;1.13;;
8165;SDS011;4124;50.856;3.634;2022-10-01T07:22:01;2.70;;;1.00;;
8165;SDS011;4124;50.856;3.634;2022-10-01T07:24:26;2.97;;;1.27;;
8165;SDS011;4124;50.856;3.634;2022-10-01T07:26:52;2.93;;;1.70;;
8165;SDS011;4124;50.856;3.634;2022-10-01T07:29:19;4.80;;;1.10;;
8165;SDS011;4124;50.856;3.634;2022-10-01T07:31:46;3.33;;;1.23;;
8165;SDS011;4124;50.856;3.634;2022-10-01T07:34:11;5.23;;;1.63;;
8165;SDS011;4124;50.856;3.634;2022-10-01T07:36:36;1.70;;;1.30;;
8165;SDS011;4124;50.856;3.634;2022-10-01T07:39:02;1.83;;;1.20;;
8165;SDS011;4124;50.856;3.634;2022-10-01T07:41:27;4.60;;;1.30;;
8165;SDS011;4124;50.856;3.634;2022-10-01T07:43:52;2.67;;;1.30;;
8165;SDS011;4124;50.856;3.634;2022-10-01T07:46:17;1.87;;;1.30;;
8165;SDS011;4124;50.856;3.634;2022-10-01T07:48:43;6.70;;;1.30;;
8165;SDS011;4124;50.856;3.634;2022-10-01T07:51:10;2.33;;;1.20;;
8165;SDS011;4124;50.856;3.634;2022-10-01T07:53:35;7.10;;;1.67;;
8165;SDS011;4124;50.856;3.634;2022-10-01T07:56:01;6.50;;;1.47;;
8165;SDS011;4124;50.856;3.634;2022-10-01T07:58:26;20.23;;;2.33;;
8165;SDS011;4124;50.856;3.634;2022-10-01T08:00:51;6.70;;;1.93;;
8165;SDS011;4124;50.856;3.634;2022-10-01T08:03:22;14.00;;;2.67;;
8165;SDS011;4124;50.856;3.634;2022-10-01T08:05:47;15.53;;;3.00;;
8165;SDS011;4124;50.856;3.634;2022-10-01T08:08:13;10.03;;;2.10;;
8165;SDS011;4124;50.856;3.634;2022-10-01T08:10:38;10.03;;;1.70;;
8165;SDS011;4124;50.856;3.634;2022-10-01T08:13:15;7.13;;;1.90;;
8165;SDS011;4124;50.856;3.634;2022-10-01T08:15:40;6.83;;;2.10;;
8165;SDS011;4124;50.856;3.634;2022-10-01T08:18:06;8.90;;;1.93;;
8165;SDS011;4124;50.856;3.634;2022-10-01T08:20:31;2.50;;;1.60;;
8165;SDS011;4124;50.856;3.634;2022-10-01T08:23:00;7.63;;;1.73;;
8165;SDS011;4124;50.856;3.634;2022-10-01T08:25:25;7.00;;;1.87;;
8165;SDS011;4124;50.856;3.634;2022-10-01T08:27:50;6.17;;;2.03;;
8165;SDS011;4124;50.856;3.634;2022-10-01T08:30:16;5.70;;;1.77;;
8165;SDS011;4124;50.856;3.634;2022-10-01T08:32:41;9.20;;;1.87;;
8165;SDS011;4124;50.856;3.634;2022-10-01T08:35:06;9.40;;;1.70;;
8165;SDS011;4124;50.856;3.634;2022-10-01T08:37:32;3.93;;;1.53;;
8165;SDS011;4124;50.856;3.634;2022-10-01T08:39:57;10.67;;;2.00;;
8165;SDS011;4124;50.856;3.634;2022-10-01T08:45:13;14.53;;;1.80;;
8165;SDS011;4124;50.856;3.634;2022-10-01T08:47:44;11.93;;;2.00;;
8165;SDS011;4124;50.856;3.634;2022-10-01T08:50:17;6.63;;;1.93;;
8165;SDS011;4124;50.856;3.634;2022-10-01T08:52:47;6.03;;;1.93;;
8165;SDS011;4124;50.856;3.634;2022-10-01T08:55:16;2.87;;;1.50;;
8165;SDS011;4124;50.856;3.634;2022-10-01T08:57:53;8.70;;;1.70;;
8165;SDS011;4124;50.856;3.634;2022-10-01T09:00:20;5.77;;;1.40;;
8165;SDS011;4124;50.856;3.634;2022-10-01T09:02:45;6.57;;;1.97;;
8165;SDS011;4124;50.856;3.634;2022-10-01T09:20:28;3.80;;;1.57;;
8165;SDS011;4124;50.856;3.634;2022-10-01T09:23:05;4.53;;;1.50;;
8165;SDS011;4124;50.856;3.634;2022-10-01T09:25:31;3.43;;;1.40;;
8165;SDS011;4124;50.856;3.634;2022-10-01T09:28:40;3.87;;;1.70;;
8165;SDS011;4124;50.856;3.634;2022-10-01T09:30:55;8.40;;;1.97;;
8165;SDS011;4124;50.856;3.634;2022-10-01T09:33:22;7.30;;;1.60;;
8165;SDS011;4124;50.856;3.634;2022-10-01T09:40:47;6.23;;;1.60;;
8165;SDS011;4124;50.856;3.634;2022-10-01T09:43:13;6.97;;;1.83;;
8165;SDS011;4124;50.856;3.634;2022-10-01T09:45:44;6.80;;;1.70;;
8165;SDS011;4124;50.856;3.634;2022-10-01T09:50:53;6.97;;;1.80;;
8165;SDS011;4124;50.856;3.634;2022-10-01T09:53:27;3.50;;;1.40;;
8165;SDS011;4124;50.856;3.634;2022-10-01T09:55:59;5.83;;;1.87;;
8165;SDS011;4124;50.856;3.634;2022-10-01T09:58:26;2.93;;;1.50;;
8165;SDS011;4124;50.856;3.634;2022-10-01T10:00:52;4.30;;;1.70;;
8165;SDS011;4124;50.856;3.634;2022-10-01T10:03:28;6.13;;;1.60;;
8165;SDS011;4124;50.856;3.634;2022-10-01T10:05:54;1.93;;;1.40;;
8165;SDS011;4124;50.856;3.634;2022-10-01T10:08:27;4.40;;;1.73;;
8165;SDS011;4124;50.856;3.634;2022-10-01T10:10:58;2.83;;;1.40;;
8165;SDS011;4124;50.856;3.634;2022-10-01T10:16:29;3.90;;;1.50;;
8165;SDS011;4124;50.856;3.634;2022-10-01T10:19:03;3.60;;;1.40;;
8165;SDS011;4124;50.856;3.634;2022-10-01T10:21:31;5.33;;;1.30;;
8165;SDS011;4124;50.856;3.634;2022-10-01T10:24:03;3.30;;;1.60;;
8165;SDS011;4124;50.856;3.634;2022-10-01T10:26:29;3.77;;;1.60;;
8165;SDS011;4124;50.856;3.634;2022-10-01T10:28:56;5.10;;;1.77;;
8165;SDS011;4124;50.856;3.634;2022-10-01T10:31:22;9.00;;;2.33;;
8165;SDS011;4124;50.856;3.634;2022-10-01T10:36:13;4.80;;;1.70;;
8165;SDS011;4124;50.856;3.634;2022-10-01T10:38:40;3.37;;;1.80;;
8165;SDS011;4124;50.856;3.634;2022-10-01T10:41:12;4.53;;;1.53;;
8165;SDS011;4124;50.856;3.634;2022-10-01T10:43:38;3.90;;;1.60;;
8165;SDS011;4124;50.856;3.634;2022-10-01T10:46:03;4.63;;;1.80;;
8165;SDS011;4124;50.856;3.634;2022-10-01T10:48:32;6.50;;;2.20;;
8165;SDS011;4124;50.856;3.634;2022-10-01T10:51:00;5.83;;;1.90;;
8165;SDS011;4124;50.856;3.634;2022-10-01T10:53:26;4.20;;;1.60;;
8165;SDS011;4124;50.856;3.634;2022-10-01T10:55:53;3.23;;;1.20;;
8165;SDS011;4124;50.856;3.634;2022-10-01T10:58:22;5.40;;;2.00;;
8165;SDS011;4124;50.856;3.634;2022-10-01T11:00:48;5.80;;;1.80;;
8165;SDS011;4124;50.856;3.634;2022-10-01T11:03:19;3.77;;;1.40;;
8165;SDS011;4124;50.856;3.634;2022-10-01T11:05:45;4.47;;;1.50;;
8165;SDS011;4124;50.856;3.634;2022-10-01T11:08:18;5.33;;;1.70;;
8165;SDS011;4124;50.856;3.634;2022-10-01T11:13:14;7.90;;;1.60;;
8165;SDS011;4124;50.856;3.634;2022-10-01T11:24:09;2.90;;;1.47;;
8165;SDS011;4124;50.856;3.634;2022-10-01T11:29:35;5.07;;;1.53;;
8165;SDS011;4124;50.856;3.634;2022-10-01T11:39:44;3.27;;;1.30;;
8165;SDS011;4124;50.856;3.634;2022-10-01T11:42:18;5.77;;;1.90;;
8165;SDS011;4124;50.856;3.634;2022-10-01T11:44:57;3.57;;;1.40;;
8165;SDS011;4124;50.856;3.634;2022-10-01T11:47:29;4.23;;;1.63;;
8165;SDS011;4124;50.856;3.634;2022-10-01T11:52:37;4.50;;;1.70;;
8165;SDS011;4124;50.856;3.634;2022-10-01T11:57:59;7.73;;;1.70;;
8165;SDS011;4124;50.856;3.634;2022-10-01T12:00:49;11.23;;;2.10;;
8165;SDS011;4124;50.856;3.634;2022-10-01T12:03:16;4.40;;;1.87;;
8165;SDS011;4124;50.856;3.634;2022-10-01T12:05:45;4.27;;;1.80;;
8165;SDS011;4124;50.856;3.634;2022-10-01T12:10:37;6.57;;;1.87;;
8165;SDS011;4124;50.856;3.634;2022-10-01T12:18:15;9.23;;;1.90;;
8165;SDS011;4124;50.856;3.634;2022-10-01T12:20:50;6.40;;;1.97;;
8165;SDS011;4124;50.856;3.634;2022-10-01T12:23:17;9.70;;;2.20;;
8165;SDS011;4124;50.856;3.634;2022-10-01T12:25:56;5.60;;;2.13;;
8165;SDS011;4124;50.856;3.634;2022-10-01T12:28:30;5.40;;;2.00;;
8165;SDS011;4124;50.856;3.634;2022-10-01T12:36:27;4.20;;;1.77;;
8165;SDS011;4124;50.856;3.634;2022-10-01T12:43:53;3.50;;;2.00;;
8165;SDS011;4124;50.856;3.634;2022-10-01T12:48:59;8.47;;;2.03;;
8165;SDS011;4124;50.856;3.634;2022-10-01T12:51:40;5.53;;;1.80;;
8165;SDS011;4124;50.856;3.634;2022-10-01T12:56:53;3.37;;;1.73;;
8165;SDS011;4124;50.856;3.634;2022-10-01T13:14:59;2.90;;;1.60;;
8165;SDS011;4124;50.856;3.634;2022-10-01T13:17:29;5.87;;;1.50;;
8165;SDS011;4124;50.856;3.634;2022-10-01T13:25:20;6.10;;;1.50;;
8165;SDS011;4124;50.856;3.634;2022-10-01T13:27:54;2.70;;;1.40;;
8165;SDS011;4124;50.856;3.634;2022-10-01T13:30:22;5.10;;;1.70;;
8165;SDS011;4124;50.856;3.634;2022-10-01T13:37:48;5.20;;;1.70;;
8165;SDS011;4124;50.856;3.634;2022-10-01T13:42:45;8.63;;;1.73;;
8165;SDS011;4124;50.856;3.634;2022-10-01T13:48:02;5.77;;;2.10;;
8165;SDS011;4124;50.856;3.634;2022-10-01T13:50:28;5.60;;;2.40;;
8165;SDS011;4124;50.856;3.634;2022-10-01T13:53:02;4.77;;;1.97;;
8165;SDS011;4124;50.856;3.634;2022-10-01T13:55:29;6.87;;;2.13;;
8165;SDS011;4124;50.856;3.634;2022-10-01T13:58:05;1.90;;;1.63;;
8165;SDS011;4124;50.856;3.634;2022-10-01T14:00:31;2.30;;;1.30;;
8165;SDS011;4124;50.856;3.634;2022-10-01T14:03:23;6.37;;;1.70;;
8165;SDS011;4124;50.856;3.634;2022-10-01T14:05:57;3.20;;;1.83;;
8165;SDS011;4124;50.856;3.634;2022-10-01T14:08:25;3.13;;;1.70;;
8165;SDS011;4124;50.856;3.634;2022-10-01T14:10:56;5.43;;;1.70;;
8165;SDS011;4124;50.856;3.634;2022-10-01T14:13:45;2.87;;;1.50;;
8165;SDS011;4124;50.856;3.634;2022-10-01T14:16:29;5.73;;;1.70;;
8165;SDS011;4124;50.856;3.634;2022-10-01T14:18:55;5.90;;;1.53;;
8165;SDS011;4124;50.856;3.634;2022-10-01T14:21:55;2.40;;;1.30;;
8165;SDS011;4124;50.856;3.634;2022-10-01T14:26:51;3.77;;;1.47;;
8165;SDS011;4124;50.856;3.634;2022-10-01T14:36:51;2.33;;;1.40;;
8165;SDS011;4124;50.856;3.634;2022-10-01T14:39:18;6.70;;;1.93;;
8165;SDS011;4124;50.856;3.634;2022-10-01T14:41:45;6.27;;;1.93;;
8165;SDS011;4124;50.856;3.634;2022-10-01T14:44:24;2.37;;;1.50;;
8165;SDS011;4124;50.856;3.634;2022-10-01T14:46:50;4.50;;;1.40;;
8165;SDS011;4124;50.856;3.634;2022-10-01T14:51:47;3.63;;;1.60;;
8165;SDS011;4124;50.856;3.634;2022-10-01T14:54:13;4.30;;;1.70;;
8165;SDS011;4124;50.856;3.634;2022-10-01T14:56:40;3.00;;;1.60;;
8165;SDS011;4124;50.856;3.634;2022-10-01T14:59:05;5.80;;;1.47;;
8165;SDS011;4124;50.856;3.634;2022-10-01T15:01:32;3.80;;;1.70;;
8165;SDS011;4124;50.856;3.634;2022-10-01T15:03:58;4.17;;;1.70;;
8165;SDS011;4124;50.856;3.634;2022-10-01T15:06:24;4.33;;;1.77;;
8165;SDS011;4124;50.856;3.634;2022-10-01T15:08:52;5.10;;;1.50;;
8165;SDS011;4124;50.856;3.634;2022-10-01T15:11:20;3.50;;;1.53;;
8165;SDS011;4124;50.856;3.634;2022-10-01T15:13:46;2.90;;;1.40;;
8165;SDS011;4124;50.856;3.634;2022-10-01T15:16:16;4.70;;;1.80;;
8165;SDS011;4124;50.856;3.634;2022-10-01T15:18:45;4.07;;;1.57;;
8165;SDS011;4124;50.856;3.634;2022-10-01T15:21:14;4.23;;;1.60;;
8165;SDS011;4124;50.856;3.634;2022-10-01T15:23:40;3.50;;;1.67;;
8165;SDS011;4124;50.856;3.634;2022-10-01T15:26:06;3.10;;;1.40;;
8165;SDS011;4124;50.856;3.634;2022-10-01T15:28:33;4.53;;;1.60;;
8165;SDS011;4124;50.856;3.634;2022-10-01T15:30:59;2.90;;;1.30;;
8165;SDS011;4124;50.856;3.634;2022-10-01T15:33:34;4.30;;;1.40;;
8165;SDS011;4124;50.856;3.634;2022-10-01T15:36:01;5.33;;;1.80;;
8165;SDS011;4124;50.856;3.634;2022-10-01T15:38:27;2.30;;;1.40;;
8165;SDS011;4124;50.856;3.634;2022-10-01T15:40:55;5.93;;;1.80;;
8165;SDS011;4124;50.856;3.634;2022-10-01T15:48:34;3.57;;;1.63;;
8165;SDS011;4124;50.856;3.634;2022-10-01T15:51:04;5.90;;;1.67;;
8165;SDS011;4124;50.856;3.634;2022-10-01T15:53:30;7.80;;;1.87;;
8165;SDS011;4124;50.856;3.634;2022-10-01T15:55:57;7.33;;;1.70;;
8165;SDS011;4124;50.856;3.634;2022-10-01T15:58:23;4.43;;;2.00;;
8165;SDS011;4124;50.856;3.634;2022-10-01T16:03:23;9.90;;;1.87;;
8165;SDS011;4124;50.856;3.634;2022-10-01T16:05:50;2.97;;;1.50;;
8165;SDS011;4124;50.856;3.634;2022-10-01T16:08:19;3.87;;;1.60;;
8165;SDS011;4124;50.856;3.634;2022-10-01T16:10:48;4.80;;;1.67;;
8165;SDS011;4124;50.856;3.634;2022-10-01T16:13:35;4.60;;;1.60;;
8165;SDS011;4124;50.856;3.634;2022-10-01T16:16:04;5.17;;;1.80;;
8165;SDS011;4124;50.856;3.634;2022-10-01T16:18:30;3.67;;;1.50;;
8165;SDS011;4124;50.856;3.634;2022-10-01T16:20:56;4.50;;;1.80;;
8165;SDS011;4124;50.856;3.634;2022-10-01T16:25:57;8.00;;;2.00;;
8165;SDS011;4124;50.856;3.634;2022-10-01T16:28:32;4.53;;;1.70;;
8165;SDS011;4124;50.856;3.634;2022-10-01T16:30:58;4.90;;;1.97;;
8165;SDS011;4124;50.856;3.634;2022-10-01T16:33:23;6.87;;;1.93;;
8165;SDS011;4124;50.856;3.634;2022-10-01T16:35:50;6.07;;;1.50;;
8165;SDS011;4124;50.856;3.634;2022-10-01T16:38:16;5.17;;;1.80;;
8165;SDS011;4124;50.856;3.634;2022-10-01T16:40:42;5.70;;;1.90;;
8165;SDS011;4124;50.856;3.634;2022-10-01T16:43:15;5.43;;;1.70;;
8165;SDS011;4124;50.856;3.634;2022-10-01T16:45:42;3.87;;;1.50;;
8165;SDS011;4124;50.856;3.634;2022-10-01T16:48:13;2.60;;;1.40;;
8165;SDS011;4124;50.856;3.634;2022-10-01T16:50:39;3.73;;;1.60;;
8165;SDS011;4124;50.856;3.634;2022-10-01T16:53:06;4.00;;;1.70;;
8165;SDS011;4124;50.856;3.634;2022-10-01T16:55:34;2.60;;;1.50;;
8165;SDS011;4124;50.856;3.634;2022-10-01T16:58:02;3.60;;;1.57;;
8165;SDS011;4124;50.856;3.634;2022-10-01T17:00:28;4.63;;;1.70;;
8165;SDS011;4124;50.856;3.634;2022-10-01T17:02:54;3.60;;;1.70;;
8165;SDS011;4124;50.856;3.634;2022-10-01T17:05:23;7.63;;;1.80;;
8165;SDS011;4124;50.856;3.634;2022-10-01T17:07:49;7.97;;;1.77;;
8165;SDS011;4124;50.856;3.634;2022-10-01T17:10:15;815.33;;;740.63;;
8165;SDS011;4124;50.856;3.634;2022-10-01T17:12:41;818.67;;;743.60;;
8165;SDS011;4124;50.856;3.634;2022-10-01T17:15:08;820.00;;;745.07;;
8165;SDS011;4124;50.856;3.634;2022-10-01T17:17:36;822.90;;;747.80;;
8165;SDS011;4124;50.856;3.634;2022-10-01T17:20:01;819.13;;;744.27;;
8165;SDS011;4124;50.856;3.634;2022-10-01T17:22:26;818.27;;;743.33;;
8165;SDS011;4124;50.856;3.634;2022-10-01T17:24:51;817.10;;;742.03;;
8165;SDS011;4124;50.856;3.634;2022-10-01T17:27:17;751.77;;;682.63;;
8165;SDS011;4124;50.856;3.634;2022-10-01T17:29:42;8.83;;;3.60;;
8165;SDS011;4124;50.856;3.634;2022-10-01T17:32:07;9.00;;;3.03;;
8165;SDS011;4124;50.856;3.634;2022-10-01T17:34:32;7.70;;;2.70;;
8165;SDS011;4124;50.856;3.634;2022-10-01T17:36:58;7.20;;;2.90;;
8165;SDS011;4124;50.856;3.634;2022-10-01T17:39:24;4.57;;;2.43;;
8165;SDS011;4124;50.856;3.634;2022-10-01T17:41:49;7.43;;;2.70;;
8165;SDS011;4124;50.856;3.634;2022-10-01T17:44:14;10.93;;;3.30;;